createdAt,value
2022-11-25T00:01:26.882Z,6.40
2022-11-25T00:03:58.106Z,6.40
2022-11-25T00:06:31.729Z,6.30
2022-11-25T00:09:05.699Z,6.30
2022-11-25T00:11:36.148Z,6.30
2022-11-25T00:14:03.052Z,6.30
2022-11-25T00:16:29.345Z,6.30
2022-11-25T00:18:57.509Z,6.30
2022-11-25T00:21:28.004Z,6.30
2022-11-25T00:24:01.141Z,6.20
2022-11-25T00:26:31.861Z,6.20
2022-11-25T00:29:01.793Z,6.20
2022-11-25T00:31:34.268Z,6.20
2022-11-25T00:34:00.790Z,6.20
2022-11-25T00:36:29.889Z,6.20
2022-11-25T00:39:03.451Z,6.10
2022-11-25T00:41:48.302Z,6.10
2022-11-25T00:44:38.323Z,6.10
2022-11-25T00:47:20.789Z,6.10
2022-11-25T00:49:50.944Z,6.00
2022-11-25T00:52:21.255Z,6.10
2022-11-25T00:54:49.022Z,6.10
2022-11-25T00:57:18.500Z,6.10
2022-11-25T00:59:44.825Z,6.10
2022-11-25T01:02:14.028Z,6.10
2022-11-25T01:04:40.312Z,6.20
2022-11-25T01:07:07.158Z,6.20
2022-11-25T01:09:34.241Z,6.20
2022-11-25T01:12:03.764Z,6.20
2022-11-25T01:14:30.596Z,6.20
2022-11-25T01:16:56.782Z,6.20
2022-11-25T01:19:24.057Z,6.20
2022-11-25T01:21:50.337Z,6.20
2022-11-25T01:24:17.538Z,6.30
2022-11-25T01:26:45.042Z,6.30
2022-11-25T01:29:18.239Z,6.30
2022-11-25T01:31:45.831Z,6.30
2022-11-25T01:34:20.052Z,6.30
2022-11-25T01:36:46.819Z,6.30
2022-11-25T01:39:18.741Z,6.30
2022-11-25T01:41:46.067Z,6.30
2022-11-25T01:44:20.512Z,6.30
2022-11-25T01:47:25.431Z,6.30
2022-11-25T01:50:02.996Z,6.30
2022-11-25T01:52:48.392Z,6.30
2022-11-25T01:55:27.723Z,6.30
2022-11-25T01:58:14.301Z,6.30
2022-11-25T02:00:41.568Z,6.30
2022-11-25T02:03:09.237Z,6.30
2022-11-25T02:06:02.399Z,6.30
2022-11-25T02:08:32.247Z,6.40
2022-11-25T02:11:03.897Z,6.40
2022-11-25T02:13:32.832Z,6.40
2022-11-25T02:16:00.059Z,6.40
2022-11-25T02:18:27.247Z,6.40
2022-11-25T02:20:53.520Z,6.40
2022-11-25T02:23:47.313Z,6.40
2022-11-25T02:26:13.619Z,6.40
2022-11-25T02:28:40.121Z,6.40
2022-11-25T02:31:07.389Z,6.40
2022-11-25T02:33:35.475Z,6.40
2022-11-25T02:36:10.491Z,6.40
2022-11-25T02:38:52.798Z,6.40
2022-11-25T02:41:38.039Z,6.40
2022-11-25T02:44:05.501Z,6.40
2022-11-25T02:46:32.655Z,6.40
2022-11-25T02:49:10.516Z,6.40
2022-11-25T02:51:41.526Z,6.40
2022-11-25T02:54:09.537Z,6.40
2022-11-25T02:56:36.827Z,6.40
2022-11-25T02:59:04.224Z,6.40
2022-11-25T03:01:31.597Z,6.40
2022-11-25T03:03:59.176Z,6.40
2022-11-25T03:06:28.102Z,6.40
2022-11-25T03:08:54.553Z,6.40
2022-11-25T03:11:20.718Z,6.40
2022-11-25T03:13:46.944Z,6.40
2022-11-25T03:16:14.239Z,6.40
2022-11-25T03:18:40.441Z,6.40
2022-11-25T03:21:06.815Z,6.40
2022-11-25T03:23:33.013Z,6.40
2022-11-25T03:26:06.073Z,6.40
2022-11-25T03:28:32.350Z,6.40
2022-11-25T03:30:58.508Z,6.40
2022-11-25T03:33:24.713Z,6.40
2022-11-25T03:35:50.891Z,6.50
2022-11-25T03:38:17.857Z,6.50
2022-11-25T03:40:44.133Z,6.50
2022-11-25T03:43:10.375Z,6.60
2022-11-25T03:45:36.953Z,6.70
2022-11-25T03:48:06.081Z,6.70
2022-11-25T03:50:32.506Z,6.70
2022-11-25T03:52:58.683Z,6.80
2022-11-25T03:55:25.383Z,6.90
2022-11-25T03:57:51.561Z,6.90
2022-11-25T04:00:20.635Z,7.00
2022-11-25T04:02:54.139Z,7.10
2022-11-25T04:05:20.706Z,7.20
2022-11-25T04:07:49.020Z,7.20
2022-11-25T04:10:16.686Z,7.30
2022-11-25T04:12:48.651Z,7.40
2022-11-25T04:15:21.984Z,7.50
2022-11-25T04:17:52.929Z,7.50
2022-11-25T04:20:19.868Z,7.60
2022-11-25T04:22:52.256Z,7.70
2022-11-25T04:25:19.499Z,7.70
2022-11-25T04:27:46.213Z,7.80
2022-11-25T04:30:14.324Z,7.90
2022-11-25T04:32:42.600Z,7.90
2022-11-25T04:35:10.210Z,8.00
2022-11-25T04:37:38.347Z,8.00
2022-11-25T04:40:05.580Z,8.00
2022-11-25T04:42:33.887Z,8.10
2022-11-25T04:45:23.007Z,8.10
2022-11-25T04:47:51.214Z,8.10
2022-11-25T04:50:21.260Z,8.20
2022-11-25T04:53:07.733Z,8.20
2022-11-25T04:55:33.920Z,8.20
2022-11-25T04:58:03.736Z,8.20
2022-11-25T05:00:31.885Z,8.30
2022-11-25T05:02:58.114Z,8.30
2022-11-25T05:05:24.336Z,8.30
2022-11-25T05:07:50.666Z,8.40
2022-11-25T05:10:19.705Z,8.40
2022-11-25T05:12:48.365Z,8.40
2022-11-25T05:15:17.763Z,8.40
2022-11-25T05:17:46.235Z,8.40
2022-11-25T05:20:13.525Z,8.50
2022-11-25T05:22:39.799Z,8.50
2022-11-25T05:25:09.995Z,8.60
2022-11-25T05:27:42.770Z,8.60
2022-11-25T05:30:10.368Z,8.60
2022-11-25T05:32:37.147Z,8.60
2022-11-25T05:35:07.898Z,8.70
2022-11-25T05:37:34.470Z,8.70
2022-11-25T05:40:05.405Z,8.80
2022-11-25T05:42:50.221Z,8.80
2022-11-25T05:45:17.900Z,8.80
2022-11-25T05:47:44.067Z,8.90
2022-11-25T05:50:13.153Z,8.90
2022-11-25T05:52:39.460Z,8.90
2022-11-25T05:55:06.511Z,9.00
2022-11-25T05:57:32.778Z,9.00
2022-11-25T06:00:05.763Z,9.00
2022-11-25T06:02:41.173Z,9.00
2022-11-25T06:05:09.177Z,9.10
2022-11-25T06:07:35.432Z,9.10
2022-11-25T06:10:03.461Z,9.10
2022-11-25T06:12:31.834Z,9.20
2022-11-25T06:14:58.059Z,9.20
2022-11-25T06:17:24.366Z,9.20
2022-11-25T06:19:58.882Z,9.20
2022-11-25T06:22:25.086Z,9.30
2022-11-25T06:24:58.937Z,9.30
2022-11-25T06:27:31.948Z,9.30
2022-11-25T06:30:13.517Z,9.30
2022-11-25T06:32:45.327Z,9.30
2022-11-25T06:35:21.978Z,9.40
2022-11-25T06:37:54.927Z,9.40
2022-11-25T06:40:21.112Z,9.40
2022-11-25T06:42:47.443Z,9.40
2022-11-25T06:45:13.658Z,9.50
2022-11-25T06:47:39.838Z,9.50
2022-11-25T06:50:06.767Z,9.60
2022-11-25T06:52:33.155Z,9.60
2022-11-25T06:54:59.302Z,9.60
2022-11-25T06:57:25.403Z,9.70
2022-11-25T06:59:51.708Z,9.70
2022-11-25T07:02:17.884Z,9.80
2022-11-25T07:04:44.179Z,9.80
2022-11-25T07:07:10.414Z,9.80
2022-11-25T07:09:36.870Z,9.90
2022-11-25T07:12:05.095Z,9.90
2022-11-25T07:14:31.508Z,9.90
2022-11-25T07:16:57.684Z,10.00
2022-11-25T07:19:23.995Z,10.00
2022-11-25T07:21:50.492Z,10.00
2022-11-25T07:24:17.680Z,10.10
2022-11-25T07:26:44.692Z,10.10
2022-11-25T07:29:36.459Z,10.20
2022-11-25T07:32:03.385Z,10.20
2022-11-25T07:34:33.413Z,10.20
2022-11-25T07:36:59.569Z,10.30
2022-11-25T07:39:25.731Z,10.30
2022-11-25T07:41:53.516Z,10.30
2022-11-25T07:44:20.122Z,10.40
2022-11-25T07:46:59.525Z,10.40
2022-11-25T07:49:25.776Z,10.40
2022-11-25T07:51:59.023Z,10.40
2022-11-25T07:54:25.629Z,10.50
2022-11-25T07:56:52.820Z,10.50
2022-11-25T07:59:22.771Z,10.50
2022-11-25T08:01:51.638Z,10.60
2022-11-25T08:04:20.695Z,10.60
2022-11-25T08:06:49.950Z,10.60
2022-11-25T08:09:20.801Z,10.70
2022-11-25T08:11:48.646Z,10.70
2022-11-25T08:14:16.023Z,10.80
2022-11-25T08:16:42.880Z,10.80
2022-11-25T08:19:14.128Z,10.80
2022-11-25T08:21:40.810Z,10.80
2022-11-25T08:24:07.313Z,10.90
2022-11-25T08:26:36.833Z,10.90
2022-11-25T08:29:06.222Z,10.90
2022-11-25T08:31:37.546Z,10.90
2022-11-25T08:34:06.213Z,10.90
2022-11-25T08:36:35.415Z,11.00
2022-11-25T08:39:22.636Z,11.00
2022-11-25T08:41:52.361Z,11.10
2022-11-25T08:44:18.618Z,11.10
2022-11-25T08:46:44.817Z,11.10
2022-11-25T08:49:12.774Z,11.20
2022-11-25T08:51:39.796Z,11.20
2022-11-25T08:54:07.947Z,11.30
2022-11-25T08:56:34.943Z,11.30
2022-11-25T08:59:02.617Z,11.40
2022-11-25T09:01:28.922Z,11.40
2022-11-25T09:03:57.323Z,11.40
2022-11-25T09:06:26.131Z,11.40
2022-11-25T09:08:57.524Z,11.50
2022-11-25T09:11:25.406Z,11.50
2022-11-25T09:13:51.939Z,11.50
2022-11-25T09:16:18.660Z,11.60
2022-11-25T09:18:45.052Z,11.60
2022-11-25T09:21:15.141Z,11.60
2022-11-25T09:23:41.434Z,11.60
2022-11-25T09:26:19.570Z,11.60
2022-11-25T09:28:45.732Z,11.70
2022-11-25T09:31:11.978Z,11.70
2022-11-25T09:33:38.634Z,11.70
2022-11-25T09:36:05.528Z,11.70
2022-11-25T09:38:31.807Z,11.80
2022-11-25T09:41:11.159Z,11.80
2022-11-25T09:44:45.768Z,11.80
2022-11-25T09:47:48.956Z,11.80
2022-11-25T09:51:00.508Z,11.80
2022-11-25T09:53:41.406Z,11.90
2022-11-25T09:56:47.498Z,11.90
2022-11-25T09:59:45.818Z,11.90
2022-11-25T10:02:23.584Z,12.00
2022-11-25T10:05:06.381Z,12.00
2022-11-25T10:07:49.064Z,12.10
2022-11-25T10:10:38.534Z,12.10
2022-11-25T10:13:16.232Z,12.20
2022-11-25T10:15:49.877Z,12.20
2022-11-25T10:18:38.699Z,12.20
2022-11-25T10:21:05.295Z,12.30
2022-11-25T10:23:35.200Z,12.30
2022-11-25T10:26:14.121Z,12.30
2022-11-25T10:28:51.522Z,12.40
2022-11-25T10:31:23.668Z,12.40
2022-11-25T10:33:56.206Z,12.50
2022-11-25T10:36:41.603Z,12.50
2022-11-25T10:39:27.499Z,12.60
2022-11-25T10:42:06.396Z,12.60
2022-11-25T10:44:37.468Z,12.70
2022-11-25T10:47:37.609Z,12.80
2022-11-25T10:50:17.043Z,12.80
2022-11-25T10:52:59.882Z,12.90
2022-11-25T10:55:30.852Z,12.90
2022-11-25T10:57:58.744Z,13.00
2022-11-25T11:00:36.154Z,13.00
2022-11-25T11:03:24.913Z,13.10
2022-11-25T11:05:53.805Z,13.10
2022-11-25T11:08:35.449Z,13.20
2022-11-25T11:11:16.955Z,13.20
2022-11-25T11:13:44.278Z,13.30
2022-11-25T11:16:36.618Z,13.30
2022-11-25T11:19:03.945Z,13.30
2022-11-25T11:21:37.190Z,13.30
2022-11-25T11:24:34.643Z,13.40
2022-11-25T11:27:20.239Z,13.40
2022-11-25T11:29:46.529Z,13.50
2022-11-25T11:32:24.471Z,13.50
2022-11-25T11:35:11.731Z,13.60
2022-11-25T11:37:48.525Z,13.60
2022-11-25T11:40:45.740Z,13.60
2022-11-25T11:43:55.645Z,13.70
2022-11-25T11:47:21.068Z,13.70
2022-11-25T11:50:24.304Z,13.70
2022-11-25T11:52:56.300Z,13.70
2022-11-25T11:59:17.061Z,13.80
2022-11-25T12:02:04.367Z,13.90
2022-11-25T12:04:45.962Z,13.90
2022-11-25T12:07:34.153Z,14.00
2022-11-25T12:10:13.574Z,14.00
2022-11-25T12:13:38.039Z,14.00
2022-11-25T12:16:17.220Z,14.10
2022-11-25T12:19:32.819Z,14.10
2022-11-25T12:22:19.021Z,14.10
2022-11-25T12:25:05.519Z,14.10
2022-11-25T12:27:43.532Z,14.10
2022-11-25T12:30:14.100Z,14.20
2022-11-25T12:33:06.205Z,14.10
2022-11-25T12:36:11.174Z,14.10
2022-11-25T12:38:53.989Z,14.10
2022-11-25T12:41:52.561Z,14.10
2022-11-25T12:44:47.541Z,14.10
2022-11-25T12:47:13.836Z,14.10
2022-11-25T12:49:47.999Z,14.10
2022-11-25T12:52:53.166Z,14.10
2022-11-25T12:55:27.107Z,14.10
2022-11-25T12:58:15.129Z,14.10
2022-11-25T13:01:11.353Z,14.00
2022-11-25T13:04:06.448Z,14.00
2022-11-25T13:07:00.373Z,14.00
2022-11-25T13:10:02.325Z,14.00
2022-11-25T13:13:02.707Z,14.00
2022-11-25T13:15:43.741Z,14.00
2022-11-25T13:18:18.994Z,14.00
2022-11-25T13:20:48.810Z,14.00
2022-11-25T13:23:17.933Z,14.00
2022-11-25T13:25:47.533Z,14.00
2022-11-25T13:28:33.233Z,14.00
2022-11-25T13:31:31.463Z,13.90
2022-11-25T13:34:07.899Z,14.00
2022-11-25T13:36:53.278Z,14.00
2022-11-25T13:39:35.256Z,13.90
2022-11-25T13:42:25.098Z,13.90
2022-11-25T13:44:59.535Z,13.90
2022-11-25T13:47:38.211Z,13.90
2022-11-25T13:50:24.413Z,13.90
2022-11-25T13:53:32.619Z,13.90
2022-11-25T13:56:20.601Z,13.90
2022-11-25T13:59:09.990Z,13.90
2022-11-25T14:01:45.210Z,13.90
2022-11-25T14:04:15.067Z,13.90
2022-11-25T14:06:57.161Z,13.90
2022-11-25T14:09:57.415Z,13.90
2022-11-25T14:13:01.026Z,13.90
2022-11-25T14:16:05.353Z,13.90
2022-11-25T14:19:28.497Z,13.90
2022-11-25T14:21:43.964Z,13.90
2022-11-25T14:24:42.511Z,13.90
2022-11-25T14:27:24.933Z,13.90
2022-11-25T14:30:02.981Z,13.90
2022-11-25T14:32:51.277Z,13.90
2022-11-25T14:35:29.619Z,13.90
2022-11-25T14:38:24.158Z,13.90
2022-11-25T14:41:17.157Z,13.90
2022-11-25T14:43:53.123Z,13.90
2022-11-25T14:46:21.988Z,13.90
2022-11-25T14:48:58.296Z,13.90
2022-11-25T14:51:33.198Z,13.90
2022-11-25T14:53:59.538Z,13.90
2022-11-25T14:56:33.679Z,13.90
2022-11-25T14:59:00.914Z,13.90
2022-11-25T15:01:33.582Z,13.90
2022-11-25T15:04:22.544Z,13.80
2022-11-25T15:06:57.066Z,13.80
2022-11-25T15:09:30.169Z,13.80
2022-11-25T15:12:12.982Z,13.80
2022-11-25T15:14:46.803Z,13.70
2022-11-25T15:17:32.288Z,13.70
2022-11-25T15:20:14.467Z,13.70
2022-11-25T15:22:51.073Z,13.70
2022-11-25T15:25:18.278Z,13.70
2022-11-25T15:27:49.168Z,13.70
2022-11-25T15:30:26.394Z,13.60
2022-11-25T15:32:54.758Z,13.60
2022-11-25T15:35:25.320Z,13.60
2022-11-25T15:37:53.577Z,13.60
2022-11-25T15:40:42.142Z,13.50
2022-11-25T15:43:25.322Z,13.50
2022-11-25T15:45:59.390Z,13.50
2022-11-25T15:48:37.904Z,13.50
2022-11-25T15:52:08.514Z,13.40
2022-11-25T15:54:45.019Z,13.40
2022-11-25T15:57:33.760Z,13.40
2022-11-25T15:59:59.905Z,13.40
2022-11-25T16:02:41.249Z,13.30
2022-11-25T16:05:13.192Z,13.30
2022-11-25T16:08:14.647Z,13.30
2022-11-25T16:10:41.094Z,13.30
2022-11-25T16:13:22.967Z,13.30
2022-11-25T16:16:07.739Z,13.30
2022-11-25T16:18:59.886Z,13.30
2022-11-25T16:21:40.038Z,13.30
2022-11-25T16:24:06.384Z,13.30
2022-11-25T16:26:54.159Z,13.20
2022-11-25T16:29:52.726Z,13.20
2022-11-25T16:32:23.475Z,13.20
2022-11-25T16:34:50.336Z,13.20
2022-11-25T16:37:16.854Z,13.10
2022-11-25T16:39:43.031Z,13.10
2022-11-25T16:42:20.932Z,13.10
2022-11-25T16:44:50.903Z,13.10
2022-11-25T16:47:20.767Z,13.10
2022-11-25T16:49:47.109Z,13.10
2022-11-25T16:52:14.160Z,13.00
2022-11-25T16:54:41.070Z,13.00
2022-11-25T16:57:17.076Z,13.00
2022-11-25T16:59:46.161Z,13.00
2022-11-25T17:02:21.004Z,12.90
2022-11-25T17:04:48.330Z,12.90
2022-11-25T17:07:32.073Z,12.90
2022-11-25T17:09:59.230Z,12.90
2022-11-25T17:12:32.301Z,12.90
2022-11-25T17:15:01.151Z,12.90
2022-11-25T17:17:28.166Z,12.90
2022-11-25T17:19:54.731Z,12.90
2022-11-25T17:22:25.162Z,12.80
2022-11-25T17:24:51.984Z,12.80
2022-11-25T17:27:31.242Z,12.80
2022-11-25T17:30:00.726Z,12.80
2022-11-25T17:32:27.364Z,12.80
2022-11-25T17:34:53.594Z,12.80
2022-11-25T17:37:23.315Z,12.80
2022-11-25T17:39:54.397Z,12.70
2022-11-25T17:42:30.938Z,12.70
2022-11-25T17:44:57.662Z,12.70
2022-11-25T17:47:23.915Z,12.70
2022-11-25T17:49:51.216Z,12.70
2022-11-25T17:52:17.403Z,12.70
2022-11-25T17:54:43.598Z,12.70
2022-11-25T17:57:20.554Z,12.70
2022-11-25T17:59:47.047Z,12.70
2022-11-25T18:02:21.487Z,12.60
2022-11-25T18:04:48.360Z,12.70
2022-11-25T18:07:14.571Z,12.70
2022-11-25T18:09:40.827Z,12.60
2022-11-25T18:12:25.948Z,12.60
2022-11-25T18:14:52.489Z,12.60
2022-11-25T18:17:19.158Z,12.60
2022-11-25T18:19:52.924Z,12.60
2022-11-25T18:22:23.061Z,12.60
2022-11-25T18:24:49.372Z,12.60
2022-11-25T18:27:27.960Z,12.60
2022-11-25T18:29:56.521Z,12.60
2022-11-25T18:32:24.869Z,12.60
2022-11-25T18:34:51.593Z,12.60
2022-11-25T18:37:18.148Z,12.60
2022-11-25T18:39:44.412Z,12.60
2022-11-25T18:42:25.119Z,12.60
2022-11-25T18:44:53.431Z,12.60
2022-11-25T18:47:19.582Z,12.60
2022-11-25T18:49:45.774Z,12.60
2022-11-25T18:52:11.997Z,12.60
2022-11-25T18:54:38.367Z,12.60
2022-11-25T18:57:04.867Z,12.60
2022-11-25T18:59:34.370Z,12.50
2022-11-25T19:02:01.032Z,12.50
2022-11-25T19:04:27.774Z,12.50
2022-11-25T19:06:53.990Z,12.50
2022-11-25T19:09:20.154Z,12.50
2022-11-25T19:11:51.671Z,12.40
2022-11-25T19:14:32.561Z,12.40
2022-11-25T19:17:05.612Z,12.40
2022-11-25T19:19:32.446Z,12.40
2022-11-25T19:22:00.582Z,12.40
2022-11-25T19:24:27.602Z,12.50
2022-11-25T19:26:56.600Z,12.40
2022-11-25T19:29:41.750Z,12.40
2022-11-25T19:32:22.052Z,12.40
2022-11-25T19:34:54.022Z,12.40
2022-11-25T19:37:22.269Z,12.50
2022-11-25T19:39:52.502Z,12.40
2022-11-25T19:42:18.842Z,12.40
2022-11-25T19:44:46.127Z,12.40
2022-11-25T19:47:24.990Z,12.40
2022-11-25T19:49:56.687Z,12.40
2022-11-25T19:52:38.425Z,12.40
2022-11-25T19:55:20.730Z,12.40
2022-11-25T19:57:48.602Z,12.40
2022-11-25T20:00:17.442Z,12.40
2022-11-25T20:02:45.872Z,12.40
2022-11-25T20:05:38.285Z,12.30
2022-11-25T20:08:04.740Z,12.30
2022-11-25T20:10:31.849Z,12.30
2022-11-25T20:12:58.957Z,12.30
2022-11-25T20:15:25.819Z,12.30
2022-11-25T20:17:59.146Z,12.30
2022-11-25T20:20:34.200Z,12.30
2022-11-25T20:23:44.007Z,12.20
2022-11-25T20:26:39.331Z,12.20
2022-11-25T20:29:17.816Z,12.30
2022-11-25T20:31:44.741Z,12.30
2022-11-25T20:34:10.975Z,12.30
2022-11-25T20:36:40.441Z,12.20
2022-11-25T20:39:11.777Z,12.20
2022-11-25T20:41:37.966Z,12.20
2022-11-25T20:44:04.571Z,12.20
2022-11-25T20:46:31.386Z,12.20
2022-11-25T20:49:01.516Z,12.20
2022-11-25T20:51:27.827Z,12.20
2022-11-25T20:54:02.496Z,12.10
2022-11-25T20:56:29.543Z,12.10
2022-11-25T20:58:56.206Z,12.10
2022-11-25T21:01:22.497Z,12.10
2022-11-25T21:03:49.600Z,12.10
2022-11-25T21:06:27.856Z,12.00
2022-11-25T21:08:58.361Z,12.00
2022-11-25T21:11:27.139Z,12.00
2022-11-25T21:13:53.930Z,12.00
2022-11-25T21:16:20.196Z,12.10
2022-11-25T21:18:46.591Z,12.10
2022-11-25T21:21:30.769Z,12.00
2022-11-25T21:24:12.258Z,12.10
2022-11-25T21:26:38.381Z,12.10
2022-11-25T21:29:04.520Z,12.10
2022-11-25T21:31:30.772Z,12.10
2022-11-25T21:34:01.202Z,12.10
2022-11-25T21:36:30.478Z,12.10
2022-11-25T21:39:24.302Z,12.10
2022-11-25T21:41:50.633Z,12.10
2022-11-25T21:44:29.779Z,12.10
2022-11-25T21:46:56.172Z,12.10
2022-11-25T21:49:24.486Z,12.10
2022-11-25T21:51:50.662Z,12.10
2022-11-25T21:54:16.859Z,12.10
2022-11-25T21:56:43.842Z,12.10
2022-11-25T21:59:18.495Z,12.10
2022-11-25T22:01:45.957Z,12.10
2022-11-25T22:04:15.714Z,12.10
2022-11-25T22:06:42.471Z,12.10
2022-11-25T22:09:10.406Z,12.10
2022-11-25T22:11:44.358Z,12.10
2022-11-25T22:14:33.351Z,12.10
2022-11-25T22:17:05.455Z,12.10
2022-11-25T22:19:32.034Z,12.10
2022-11-25T22:21:58.339Z,12.10
2022-11-25T22:24:24.574Z,12.10
2022-11-25T22:26:57.475Z,12.10
2022-11-25T22:29:32.418Z,12.10
2022-11-25T22:31:58.586Z,12.10
2022-11-25T22:34:25.004Z,12.10
2022-11-25T22:36:51.678Z,12.10
2022-11-25T22:39:24.753Z,12.10
2022-11-25T22:42:08.943Z,12.10
2022-11-25T22:44:46.080Z,12.10
2022-11-25T22:47:32.438Z,12.10
2022-11-25T22:50:03.030Z,12.10
2022-11-25T22:52:33.861Z,12.10
2022-11-25T22:55:21.346Z,12.10
2022-11-25T22:57:49.773Z,12.10
2022-11-25T23:00:25.139Z,12.10
2022-11-25T23:02:55.494Z,12.10
2022-11-25T23:05:33.889Z,12.10
2022-11-25T23:08:14.245Z,12.10
2022-11-25T23:10:40.985Z,12.20
2022-11-25T23:13:07.299Z,12.20
2022-11-25T23:15:34.376Z,12.10
2022-11-25T23:18:04.212Z,12.10
2022-11-25T23:20:34.813Z,12.10
2022-11-25T23:23:19.280Z,12.10
2022-11-25T23:25:46.494Z,12.10
2022-11-25T23:28:13.139Z,12.10
2022-11-25T23:31:00.934Z,12.10
2022-11-25T23:33:45.817Z,12.10
2022-11-25T23:36:22.539Z,12.10
2022-11-25T23:38:59.263Z,12.10
2022-11-25T23:41:32.380Z,12.10
2022-11-25T23:44:13.873Z,12.10
2022-11-25T23:46:41.093Z,12.10
2022-11-25T23:49:20.459Z,12.10
2022-11-25T23:51:47.118Z,12.10
2022-11-25T23:54:17.503Z,12.10
2022-11-25T23:56:43.788Z,12.10
2022-11-25T23:59:15.997Z,12.10
